sensor_id;sensor_type;location;lat;lon;timestamp;P1;durP1;ratioP1;P2;durP2;ratioP2
77573;SDS011;66710;48.868;9.080;2023-10-09T00:00:53;15.65;;;4.05;;
77573;SDS011;66710;48.868;9.080;2023-10-09T00:03:26;17.98;;;4.50;;
77573;SDS011;66710;48.868;9.080;2023-10-09T00:05:53;15.98;;;3.78;;
77573;SDS011;66710;48.868;9.080;2023-10-09T00:08:19;17.27;;;4.30;;
77573;SDS011;66710;48.868;9.080;2023-10-09T00:10:58;16.83;;;4.13;;
77573;SDS011;66710;48.868;9.080;2023-10-09T00:13:38;11.85;;;3.67;;
77573;SDS011;66710;48.868;9.080;2023-10-09T00:16:13;16.88;;;4.20;;
77573;SDS011;66710;48.868;9.080;2023-10-09T00:18:52;12.55;;;4.05;;
77573;SDS011;66710;48.868;9.080;2023-10-09T00:21:18;12.02;;;3.92;;
77573;SDS011;66710;48.868;9.080;2023-10-09T00:23:48;12.50;;;3.65;;
77573;SDS011;66710;48.868;9.080;2023-10-09T00:26:24;20.45;;;4.20;;
77573;SDS011;66710;48.868;9.080;2023-10-09T00:28:50;16.35;;;4.00;;
77573;SDS011;66710;48.868;9.080;2023-10-09T00:31:19;15.65;;;4.03;;
77573;SDS011;66710;48.868;9.080;2023-10-09T00:34:01;12.20;;;3.83;;
77573;SDS011;66710;48.868;9.080;2023-10-09T00:36:28;14.63;;;3.97;;
77573;SDS011;66710;48.868;9.080;2023-10-09T00:38:54;13.80;;;4.25;;
77573;SDS011;66710;48.868;9.080;2023-10-09T00:41:19;11.88;;;3.30;;
77573;SDS011;66710;48.868;9.080;2023-10-09T00:43:46;13.27;;;3.97;;
77573;SDS011;66710;48.868;9.080;2023-10-09T00:46:15;16.83;;;3.60;;
77573;SDS011;66710;48.868;9.080;2023-10-09T00:48:45;14.63;;;3.72;;
77573;SDS011;66710;48.868;9.080;2023-10-09T00:51:12;16.38;;;3.85;;
77573;SDS011;66710;48.868;9.080;2023-10-09T00:53:43;19.77;;;4.75;;
77573;SDS011;66710;48.868;9.080;2023-10-09T00:56:10;18.60;;;4.32;;
77573;SDS011;66710;48.868;9.080;2023-10-09T00:58:55;14.10;;;4.43;;
77573;SDS011;66710;48.868;9.080;2023-10-09T01:01:38;17.63;;;4.40;;
77573;SDS011;66710;48.868;9.080;2023-10-09T01:04:05;18.05;;;3.28;;
77573;SDS011;66710;48.868;9.080;2023-10-09T01:06:33;16.90;;;3.75;;
77573;SDS011;66710;48.868;9.080;2023-10-09T01:08:58;13.25;;;4.38;;
77573;SDS011;66710;48.868;9.080;2023-10-09T01:11:36;17.60;;;4.20;;
77573;SDS011;66710;48.868;9.080;2023-10-09T01:14:14;12.52;;;3.30;;
77573;SDS011;66710;48.868;9.080;2023-10-09T01:16:40;15.30;;;3.83;;
77573;SDS011;66710;48.868;9.080;2023-10-09T01:19:11;12.45;;;3.92;;
77573;SDS011;66710;48.868;9.080;2023-10-09T01:21:52;16.05;;;3.92;;
77573;SDS011;66710;48.868;9.080;2023-10-09T01:24:17;13.52;;;3.35;;
77573;SDS011;66710;48.868;9.080;2023-10-09T01:26:45;14.63;;;3.40;;
77573;SDS011;66710;48.868;9.080;2023-10-09T01:29:16;14.70;;;3.97;;
77573;SDS011;66710;48.868;9.080;2023-10-09T01:31:45;17.33;;;4.88;;
77573;SDS011;66710;48.868;9.080;2023-10-09T01:34:18;18.88;;;3.90;;
77573;SDS011;66710;48.868;9.080;2023-10-09T01:36:44;16.80;;;3.35;;
77573;SDS011;66710;48.868;9.080;2023-10-09T01:39:13;20.95;;;3.95;;
77573;SDS011;66710;48.868;9.080;2023-10-09T01:41:48;12.82;;;3.80;;
77573;SDS011;66710;48.868;9.080;2023-10-09T01:44:14;11.23;;;3.75;;
77573;SDS011;66710;48.868;9.080;2023-10-09T01:46:41;15.30;;;3.80;;
77573;SDS011;66710;48.868;9.080;2023-10-09T01:49:07;19.73;;;4.05;;
77573;SDS011;66710;48.868;9.080;2023-10-09T01:51:42;12.73;;;3.55;;
77573;SDS011;66710;48.868;9.080;2023-10-09T01:54:08;14.80;;;3.72;;
77573;SDS011;66710;48.868;9.080;2023-10-09T01:56:34;16.55;;;5.03;;
77573;SDS011;66710;48.868;9.080;2023-10-09T01:59:03;19.10;;;4.57;;
77573;SDS011;66710;48.868;9.080;2023-10-09T02:01:30;13.60;;;3.58;;
77573;SDS011;66710;48.868;9.080;2023-10-09T02:03:57;15.32;;;3.97;;
77573;SDS011;66710;48.868;9.080;2023-10-09T02:06:30;14.65;;;3.95;;
77573;SDS011;66710;48.868;9.080;2023-10-09T02:08:57;14.48;;;3.63;;
77573;SDS011;66710;48.868;9.080;2023-10-09T02:11:24;13.18;;;3.65;;
77573;SDS011;66710;48.868;9.080;2023-10-09T02:14:01;15.07;;;4.35;;
77573;SDS011;66710;48.868;9.080;2023-10-09T02:16:30;16.15;;;3.50;;
77573;SDS011;66710;48.868;9.080;2023-10-09T02:19:06;16.30;;;3.70;;
77573;SDS011;66710;48.868;9.080;2023-10-09T02:21:33;11.63;;;3.95;;
77573;SDS011;66710;48.868;9.080;2023-10-09T02:23:59;11.82;;;3.83;;
77573;SDS011;66710;48.868;9.080;2023-10-09T02:26:29;14.88;;;3.90;;
77573;SDS011;66710;48.868;9.080;2023-10-09T02:29:03;13.30;;;3.67;;
77573;SDS011;66710;48.868;9.080;2023-10-09T02:31:37;15.60;;;3.35;;
77573;SDS011;66710;48.868;9.080;2023-10-09T02:34:08;17.95;;;4.10;;
77573;SDS011;66710;48.868;9.080;2023-10-09T02:36:35;15.52;;;3.90;;
77573;SDS011;66710;48.868;9.080;2023-10-09T02:39:07;15.55;;;3.97;;
77573;SDS011;66710;48.868;9.080;2023-10-09T02:41:48;13.18;;;4.63;;
77573;SDS011;66710;48.868;9.080;2023-10-09T02:44:15;15.85;;;4.20;;
77573;SDS011;66710;48.868;9.080;2023-10-09T02:46:41;14.95;;;4.05;;
77573;SDS011;66710;48.868;9.080;2023-10-09T02:49:06;10.93;;;3.72;;
77573;SDS011;66710;48.868;9.080;2023-10-09T02:51:34;17.10;;;4.03;;
77573;SDS011;66710;48.868;9.080;2023-10-09T02:54:06;12.55;;;3.83;;
77573;SDS011;66710;48.868;9.080;2023-10-09T02:56:51;13.05;;;3.55;;
77573;SDS011;66710;48.868;9.080;2023-10-09T02:59:32;14.38;;;4.00;;
77573;SDS011;66710;48.868;9.080;2023-10-09T03:01:57;12.80;;;3.38;;
77573;SDS011;66710;48.868;9.080;2023-10-09T03:04:24;16.65;;;4.03;;
77573;SDS011;66710;48.868;9.080;2023-10-09T03:06:54;13.63;;;3.60;;
77573;SDS011;66710;48.868;9.080;2023-10-09T03:09:22;15.45;;;3.90;;
77573;SDS011;66710;48.868;9.080;2023-10-09T03:11:52;16.33;;;4.18;;
77573;SDS011;66710;48.868;9.080;2023-10-09T03:14:27;10.65;;;3.63;;
77573;SDS011;66710;48.868;9.080;2023-10-09T03:16:56;14.70;;;3.85;;
77573;SDS011;66710;48.868;9.080;2023-10-09T03:19:22;14.05;;;3.65;;
77573;SDS011;66710;48.868;9.080;2023-10-09T03:21:51;16.10;;;3.95;;
77573;SDS011;66710;48.868;9.080;2023-10-09T03:24:17;18.50;;;4.10;;
77573;SDS011;66710;48.868;9.080;2023-10-09T03:26:43;13.88;;;3.65;;
77573;SDS011;66710;48.868;9.080;2023-10-09T03:29:10;12.55;;;3.72;;
77573;SDS011;66710;48.868;9.080;2023-10-09T03:31:36;11.25;;;3.92;;
77573;SDS011;66710;48.868;9.080;2023-10-09T03:34:02;13.40;;;3.72;;
77573;SDS011;66710;48.868;9.080;2023-10-09T03:36:28;17.08;;;4.32;;
77573;SDS011;66710;48.868;9.080;2023-10-09T03:38:55;14.45;;;3.42;;
77573;SDS011;66710;48.868;9.080;2023-10-09T03:41:24;12.35;;;3.88;;
77573;SDS011;66710;48.868;9.080;2023-10-09T03:43:54;18.40;;;3.50;;
77573;SDS011;66710;48.868;9.080;2023-10-09T03:46:20;17.02;;;4.10;;
77573;SDS011;66710;48.868;9.080;2023-10-09T03:48:50;15.85;;;3.50;;
77573;SDS011;66710;48.868;9.080;2023-10-09T03:51:22;18.73;;;4.18;;
77573;SDS011;66710;48.868;9.080;2023-10-09T03:53:48;13.85;;;3.78;;
77573;SDS011;66710;48.868;9.080;2023-10-09T03:56:15;13.98;;;4.00;;
77573;SDS011;66710;48.868;9.080;2023-10-09T03:58:43;13.23;;;3.85;;
77573;SDS011;66710;48.868;9.080;2023-10-09T04:01:10;14.23;;;3.75;;
77573;SDS011;66710;48.868;9.080;2023-10-09T04:03:47;12.07;;;3.90;;
77573;SDS011;66710;48.868;9.080;2023-10-09T04:06:12;16.73;;;3.45;;
77573;SDS011;66710;48.868;9.080;2023-10-09T04:08:38;12.43;;;3.75;;
77573;SDS011;66710;48.868;9.080;2023-10-09T04:11:05;14.70;;;3.92;;
77573;SDS011;66710;48.868;9.080;2023-10-09T04:13:41;16.60;;;3.67;;
77573;SDS011;66710;48.868;9.080;2023-10-09T04:16:06;16.73;;;4.25;;
77573;SDS011;66710;48.868;9.080;2023-10-09T04:18:51;14.05;;;4.20;;
77573;SDS011;66710;48.868;9.080;2023-10-09T04:21:17;16.67;;;3.75;;
77573;SDS011;66710;48.868;9.080;2023-10-09T04:23:55;12.88;;;3.25;;
77573;SDS011;66710;48.868;9.080;2023-10-09T04:26:42;16.88;;;3.60;;
77573;SDS011;66710;48.868;9.080;2023-10-09T04:29:13;13.15;;;4.60;;
77573;SDS011;66710;48.868;9.080;2023-10-09T04:31:46;16.58;;;4.00;;
77573;SDS011;66710;48.868;9.080;2023-10-09T04:34:16;13.38;;;3.40;;
77573;SDS011;66710;48.868;9.080;2023-10-09T04:36:52;16.00;;;3.67;;
77573;SDS011;66710;48.868;9.080;2023-10-09T04:39:26;11.68;;;3.17;;
77573;SDS011;66710;48.868;9.080;2023-10-09T04:41:58;15.15;;;3.53;;
77573;SDS011;66710;48.868;9.080;2023-10-09T04:44:42;14.20;;;4.35;;
77573;SDS011;66710;48.868;9.080;2023-10-09T04:47:27;15.23;;;4.00;;
77573;SDS011;66710;48.868;9.080;2023-10-09T04:50:06;15.00;;;3.65;;
77573;SDS011;66710;48.868;9.080;2023-10-09T04:52:51;15.32;;;4.05;;
77573;SDS011;66710;48.868;9.080;2023-10-09T04:55:16;14.93;;;3.38;;
77573;SDS011;66710;48.868;9.080;2023-10-09T04:57:44;16.50;;;4.10;;
77573;SDS011;66710;48.868;9.080;2023-10-09T05:02:50;15.13;;;3.53;;
77573;SDS011;66710;48.868;9.080;2023-10-09T05:05:27;13.20;;;4.00;;
77573;SDS011;66710;48.868;9.080;2023-10-09T05:08:06;11.48;;;3.28;;
77573;SDS011;66710;48.868;9.080;2023-10-09T05:10:50;17.40;;;3.90;;
77573;SDS011;66710;48.868;9.080;2023-10-09T05:13:40;14.75;;;3.75;;
77573;SDS011;66710;48.868;9.080;2023-10-09T05:16:06;14.27;;;3.20;;
77573;SDS011;66710;48.868;9.080;2023-10-09T05:18:48;15.00;;;3.63;;
77573;SDS011;66710;48.868;9.080;2023-10-09T05:21:32;13.15;;;4.18;;
77573;SDS011;66710;48.868;9.080;2023-10-09T05:24:09;14.65;;;3.92;;
77573;SDS011;66710;48.868;9.080;2023-10-09T05:29:16;16.15;;;4.05;;
77573;SDS011;66710;48.868;9.080;2023-10-09T05:31:51;13.18;;;3.58;;
77573;SDS011;66710;48.868;9.080;2023-10-09T05:34:35;14.38;;;3.72;;
77573;SDS011;66710;48.868;9.080;2023-10-09T05:37:19;13.77;;;3.30;;
77573;SDS011;66710;48.868;9.080;2023-10-09T05:39:50;13.73;;;3.78;;
77573;SDS011;66710;48.868;9.080;2023-10-09T05:42:25;15.88;;;3.60;;
77573;SDS011;66710;48.868;9.080;2023-10-09T05:45:03;15.05;;;3.78;;
77573;SDS011;66710;48.868;9.080;2023-10-09T05:47:48;12.45;;;3.90;;
77573;SDS011;66710;48.868;9.080;2023-10-09T05:50:33;11.10;;;3.28;;
77573;SDS011;66710;48.868;9.080;2023-10-09T05:52:59;18.17;;;3.92;;
77573;SDS011;66710;48.868;9.080;2023-10-09T05:55:31;14.73;;;4.05;;
77573;SDS011;66710;48.868;9.080;2023-10-09T05:58:13;12.52;;;3.83;;
77573;SDS011;66710;48.868;9.080;2023-10-09T06:00:44;13.43;;;3.40;;
77573;SDS011;66710;48.868;9.080;2023-10-09T06:03:28;15.02;;;3.78;;
77573;SDS011;66710;48.868;9.080;2023-10-09T06:06:12;14.07;;;3.58;;
77573;SDS011;66710;48.868;9.080;2023-10-09T06:08:57;13.85;;;4.13;;
77573;SDS011;66710;48.868;9.080;2023-10-09T06:11:34;12.90;;;3.50;;
77573;SDS011;66710;48.868;9.080;2023-10-09T06:14:00;13.65;;;3.47;;
77573;SDS011;66710;48.868;9.080;2023-10-09T06:16:32;13.70;;;3.25;;
77573;SDS011;66710;48.868;9.080;2023-10-09T06:19:13;16.20;;;3.65;;
77573;SDS011;66710;48.868;9.080;2023-10-09T06:21:59;15.60;;;3.50;;
77573;SDS011;66710;48.868;9.080;2023-10-09T06:24:37;13.68;;;3.53;;
77573;SDS011;66710;48.868;9.080;2023-10-09T06:27:18;13.88;;;3.50;;
77573;SDS011;66710;48.868;9.080;2023-10-09T06:29:55;11.60;;;3.65;;
77573;SDS011;66710;48.868;9.080;2023-10-09T06:32:37;14.75;;;4.20;;
77573;SDS011;66710;48.868;9.080;2023-10-09T06:35:14;15.32;;;3.95;;
77573;SDS011;66710;48.868;9.080;2023-10-09T06:37:58;14.27;;;3.90;;
77573;SDS011;66710;48.868;9.080;2023-10-09T06:40:31;13.57;;;3.75;;
77573;SDS011;66710;48.868;9.080;2023-10-09T06:43:29;14.88;;;3.70;;
77573;SDS011;66710;48.868;9.080;2023-10-09T06:45:57;10.65;;;3.25;;
77573;SDS011;66710;48.868;9.080;2023-10-09T06:48:23;15.30;;;3.70;;
77573;SDS011;66710;48.868;9.080;2023-10-09T06:51:05;12.07;;;4.17;;
77573;SDS011;66710;48.868;9.080;2023-10-09T06:53:52;16.33;;;3.78;;
77573;SDS011;66710;48.868;9.080;2023-10-09T06:56:22;12.90;;;3.70;;
77573;SDS011;66710;48.868;9.080;2023-10-09T07:01:24;14.38;;;3.42;;
77573;SDS011;66710;48.868;9.080;2023-10-09T07:03:53;13.23;;;3.47;;
77573;SDS011;66710;48.868;9.080;2023-10-09T07:06:24;12.10;;;3.55;;
77573;SDS011;66710;48.868;9.080;2023-10-09T07:09:10;17.33;;;3.75;;
77573;SDS011;66710;48.868;9.080;2023-10-09T07:11:37;13.57;;;3.83;;
77573;SDS011;66710;48.868;9.080;2023-10-09T07:14:06;11.45;;;3.80;;
77573;SDS011;66710;48.868;9.080;2023-10-09T07:16:35;12.90;;;3.47;;
77573;SDS011;66710;48.868;9.080;2023-10-09T07:19:06;15.05;;;3.67;;
77573;SDS011;66710;48.868;9.080;2023-10-09T07:21:51;15.32;;;3.55;;
77573;SDS011;66710;48.868;9.080;2023-10-09T07:24:22;13.63;;;3.85;;
77573;SDS011;66710;48.868;9.080;2023-10-09T07:27:03;12.23;;;3.80;;
77573;SDS011;66710;48.868;9.080;2023-10-09T07:29:35;16.85;;;3.88;;
77573;SDS011;66710;48.868;9.080;2023-10-09T07:32:13;15.05;;;3.72;;
77573;SDS011;66710;48.868;9.080;2023-10-09T07:34:50;15.68;;;3.47;;
77573;SDS011;66710;48.868;9.080;2023-10-09T07:37:22;11.82;;;3.38;;
77573;SDS011;66710;48.868;9.080;2023-10-09T07:39:51;14.63;;;4.10;;
77573;SDS011;66710;48.868;9.080;2023-10-09T07:42:25;14.73;;;4.07;;
77573;SDS011;66710;48.868;9.080;2023-10-09T07:45:09;16.27;;;4.05;;
77573;SDS011;66710;48.868;9.080;2023-10-09T07:47:58;11.57;;;3.20;;
77573;SDS011;66710;48.868;9.080;2023-10-09T07:50:24;13.95;;;3.88;;
77573;SDS011;66710;48.868;9.080;2023-10-09T07:52:55;12.90;;;3.65;;
77573;SDS011;66710;48.868;9.080;2023-10-09T07:55:39;16.58;;;3.75;;
77573;SDS011;66710;48.868;9.080;2023-10-09T07:58:10;14.52;;;4.18;;
77573;SDS011;66710;48.868;9.080;2023-10-09T08:00:36;23.83;;;3.90;;
77573;SDS011;66710;48.868;9.080;2023-10-09T08:03:22;13.65;;;3.58;;
77573;SDS011;66710;48.868;9.080;2023-10-09T08:05:51;16.05;;;3.15;;
77573;SDS011;66710;48.868;9.080;2023-10-09T08:08:19;19.35;;;3.50;;
77573;SDS011;66710;48.868;9.080;2023-10-09T08:11:10;13.55;;;3.15;;
77573;SDS011;66710;48.868;9.080;2023-10-09T08:13:54;13.07;;;3.50;;
77573;SDS011;66710;48.868;9.080;2023-10-09T08:16:25;11.77;;;3.20;;
77573;SDS011;66710;48.868;9.080;2023-10-09T08:19:01;16.05;;;3.60;;
77573;SDS011;66710;48.868;9.080;2023-10-09T08:21:45;11.40;;;3.25;;
77573;SDS011;66710;48.868;9.080;2023-10-09T08:24:30;13.20;;;3.25;;
77573;SDS011;66710;48.868;9.080;2023-10-09T08:27:06;13.50;;;3.65;;
77573;SDS011;66710;48.868;9.080;2023-10-09T08:29:50;15.98;;;3.00;;
77573;SDS011;66710;48.868;9.080;2023-10-09T08:32:35;15.00;;;3.30;;
77573;SDS011;66710;48.868;9.080;2023-10-09T08:35:05;16.52;;;3.35;;
77573;SDS011;66710;48.868;9.080;2023-10-09T08:37:44;13.15;;;3.78;;
77573;SDS011;66710;48.868;9.080;2023-10-09T08:40:13;15.82;;;3.50;;
77573;SDS011;66710;48.868;9.080;2023-10-09T08:42:43;14.02;;;3.55;;
77573;SDS011;66710;48.868;9.080;2023-10-09T08:45:14;16.03;;;3.10;;
77573;SDS011;66710;48.868;9.080;2023-10-09T08:47:47;19.67;;;3.88;;
77573;SDS011;66710;48.868;9.080;2023-10-09T08:50:14;13.07;;;4.05;;
77573;SDS011;66710;48.868;9.080;2023-10-09T08:52:40;22.75;;;4.57;;
77573;SDS011;66710;48.868;9.080;2023-10-09T08:55:05;19.55;;;3.25;;
77573;SDS011;66710;48.868;9.080;2023-10-09T08:57:32;13.07;;;3.15;;
77573;SDS011;66710;48.868;9.080;2023-10-09T08:59:58;11.68;;;3.15;;
77573;SDS011;66710;48.868;9.080;2023-10-09T09:02:23;15.80;;;3.35;;
77573;SDS011;66710;48.868;9.080;2023-10-09T09:04:49;17.25;;;3.78;;
77573;SDS011;66710;48.868;9.080;2023-10-09T09:07:28;17.00;;;3.85;;
77573;SDS011;66710;48.868;9.080;2023-10-09T09:09:59;17.00;;;3.35;;
77573;SDS011;66710;48.868;9.080;2023-10-09T09:12:42;14.80;;;3.70;;
77573;SDS011;66710;48.868;9.080;2023-10-09T09:15:15;13.07;;;3.75;;
77573;SDS011;66710;48.868;9.080;2023-10-09T09:17:44;17.70;;;3.83;;
77573;SDS011;66710;48.868;9.080;2023-10-09T09:20:22;19.20;;;4.03;;
77573;SDS011;66710;48.868;9.080;2023-10-09T09:22:55;15.23;;;4.07;;
77573;SDS011;66710;48.868;9.080;2023-10-09T09:25:21;17.45;;;3.67;;
77573;SDS011;66710;48.868;9.080;2023-10-09T09:27:49;14.40;;;3.80;;
77573;SDS011;66710;48.868;9.080;2023-10-09T09:30:26;18.02;;;4.35;;
77573;SDS011;66710;48.868;9.080;2023-10-09T09:33:16;16.13;;;3.92;;
77573;SDS011;66710;48.868;9.080;2023-10-09T09:35:55;13.82;;;3.83;;
77573;SDS011;66710;48.868;9.080;2023-10-09T09:38:28;16.08;;;3.55;;
77573;SDS011;66710;48.868;9.080;2023-10-09T09:40:55;20.67;;;3.70;;
77573;SDS011;66710;48.868;9.080;2023-10-09T09:43:21;17.75;;;3.90;;
77573;SDS011;66710;48.868;9.080;2023-10-09T09:45:47;16.77;;;3.30;;
77573;SDS011;66710;48.868;9.080;2023-10-09T09:48:14;14.25;;;3.25;;
77573;SDS011;66710;48.868;9.080;2023-10-09T09:50:41;16.33;;;3.50;;
77573;SDS011;66710;48.868;9.080;2023-10-09T09:53:13;13.30;;;3.38;;
77573;SDS011;66710;48.868;9.080;2023-10-09T09:55:42;15.90;;;4.03;;
77573;SDS011;66710;48.868;9.080;2023-10-09T09:58:16;15.75;;;3.53;;
77573;SDS011;66710;48.868;9.080;2023-10-09T10:00:48;15.75;;;3.35;;
77573;SDS011;66710;48.868;9.080;2023-10-09T10:03:29;15.63;;;3.13;;
77573;SDS011;66710;48.868;9.080;2023-10-09T10:05:59;17.00;;;3.63;;
77573;SDS011;66710;48.868;9.080;2023-10-09T10:08:30;18.02;;;3.63;;
77573;SDS011;66710;48.868;9.080;2023-10-09T10:10:59;17.80;;;3.35;;
77573;SDS011;66710;48.868;9.080;2023-10-09T10:16:05;16.00;;;3.33;;
77573;SDS011;66710;48.868;9.080;2023-10-09T10:21:18;16.02;;;3.40;;
77573;SDS011;66710;48.868;9.080;2023-10-09T10:24:01;21.88;;;3.72;;
77573;SDS011;66710;48.868;9.080;2023-10-09T10:26:35;14.55;;;3.35;;
77573;SDS011;66710;48.868;9.080;2023-10-09T10:29:19;15.75;;;3.83;;
77573;SDS011;66710;48.868;9.080;2023-10-09T10:31:55;12.57;;;2.90;;
77573;SDS011;66710;48.868;9.080;2023-10-09T10:36:49;9.68;;;3.15;;
77573;SDS011;66710;48.868;9.080;2023-10-09T10:39:17;14.65;;;3.22;;
77573;SDS011;66710;48.868;9.080;2023-10-09T10:42:07;11.65;;;2.70;;
77573;SDS011;66710;48.868;9.080;2023-10-09T10:44:34;15.07;;;3.40;;
77573;SDS011;66710;48.868;9.080;2023-10-09T10:47:06;9.05;;;2.60;;
77573;SDS011;66710;48.868;9.080;2023-10-09T10:49:50;14.10;;;3.08;;
77573;SDS011;66710;48.868;9.080;2023-10-09T10:52:24;11.60;;;2.78;;
77573;SDS011;66710;48.868;9.080;2023-10-09T10:55:12;15.77;;;3.50;;
77573;SDS011;66710;48.868;9.080;2023-10-09T11:00:30;13.00;;;3.47;;
77573;SDS011;66710;48.868;9.080;2023-10-09T11:03:21;10.13;;;3.10;;
77573;SDS011;66710;48.868;9.080;2023-10-09T11:06:00;9.82;;;2.75;;
77573;SDS011;66710;48.868;9.080;2023-10-09T11:08:47;10.60;;;2.92;;
77573;SDS011;66710;48.868;9.080;2023-10-09T11:11:33;9.98;;;3.03;;
77573;SDS011;66710;48.868;9.080;2023-10-09T11:16:39;8.98;;;3.28;;
77573;SDS011;66710;48.868;9.080;2023-10-09T11:19:11;9.55;;;2.60;;
77573;SDS011;66710;48.868;9.080;2023-10-09T11:21:48;8.40;;;2.75;;
77573;SDS011;66710;48.868;9.080;2023-10-09T11:24:23;11.38;;;3.22;;
77573;SDS011;66710;48.868;9.080;2023-10-09T11:26:51;14.38;;;3.28;;
77573;SDS011;66710;48.868;9.080;2023-10-09T11:29:21;10.32;;;4.05;;
77573;SDS011;66710;48.868;9.080;2023-10-09T11:32:06;10.70;;;3.10;;
77573;SDS011;66710;48.868;9.080;2023-10-09T11:34:39;11.27;;;3.75;;
77573;SDS011;66710;48.868;9.080;2023-10-09T11:37:14;11.18;;;3.03;;
77573;SDS011;66710;48.868;9.080;2023-10-09T11:40:02;10.20;;;3.08;;
77573;SDS011;66710;48.868;9.080;2023-10-09T11:42:29;12.20;;;3.08;;
77573;SDS011;66710;48.868;9.080;2023-10-09T11:45:03;11.02;;;3.65;;
77573;SDS011;66710;48.868;9.080;2023-10-09T11:47:45;8.75;;;3.60;;
77573;SDS011;66710;48.868;9.080;2023-10-09T11:50:43;10.88;;;3.10;;
77573;SDS011;66710;48.868;9.080;2023-10-09T11:53:15;9.88;;;3.38;;
77573;SDS011;66710;48.868;9.080;2023-10-09T11:55:47;8.65;;;3.08;;
77573;SDS011;66710;48.868;9.080;2023-10-09T11:58:15;7.32;;;3.22;;
77573;SDS011;66710;48.868;9.080;2023-10-09T12:03:19;9.07;;;3.15;;
77573;SDS011;66710;48.868;9.080;2023-10-09T12:05:48;11.88;;;3.28;;
77573;SDS011;66710;48.868;9.080;2023-10-09T12:08:13;11.68;;;3.47;;
77573;SDS011;66710;48.868;9.080;2023-10-09T12:10:42;13.57;;;3.65;;
77573;SDS011;66710;48.868;9.080;2023-10-09T12:13:07;9.40;;;3.28;;
77573;SDS011;66710;48.868;9.080;2023-10-09T12:15:33;10.43;;;3.47;;
77573;SDS011;66710;48.868;9.080;2023-10-09T12:18:10;10.98;;;3.22;;
77573;SDS011;66710;48.868;9.080;2023-10-09T12:20:44;7.95;;;3.00;;
77573;SDS011;66710;48.868;9.080;2023-10-09T12:23:27;12.90;;;3.78;;
77573;SDS011;66710;48.868;9.080;2023-10-09T12:25:53;12.98;;;3.50;;
77573;SDS011;66710;48.868;9.080;2023-10-09T12:28:29;11.90;;;3.45;;
77573;SDS011;66710;48.868;9.080;2023-10-09T12:30:54;12.90;;;3.65;;
77573;SDS011;66710;48.868;9.080;2023-10-09T12:33:22;12.18;;;3.47;;
77573;SDS011;66710;48.868;9.080;2023-10-09T12:35:52;11.88;;;3.70;;
77573;SDS011;66710;48.868;9.080;2023-10-09T12:38:23;10.73;;;3.47;;
77573;SDS011;66710;48.868;9.080;2023-10-09T12:41:00;12.07;;;3.58;;
77573;SDS011;66710;48.868;9.080;2023-10-09T12:43:33;11.38;;;3.53;;
77573;SDS011;66710;48.868;9.080;2023-10-09T12:46:04;14.70;;;3.80;;
77573;SDS011;66710;48.868;9.080;2023-10-09T12:48:31;11.88;;;3.65;;
77573;SDS011;66710;48.868;9.080;2023-10-09T12:50:56;10.38;;;3.90;;
77573;SDS011;66710;48.868;9.080;2023-10-09T12:53:22;10.45;;;3.35;;
77573;SDS011;66710;48.868;9.080;2023-10-09T12:55:47;11.32;;;3.30;;
77573;SDS011;66710;48.868;9.080;2023-10-09T12:58:13;9.30;;;3.75;;
77573;SDS011;66710;48.868;9.080;2023-10-09T13:00:41;12.57;;;3.50;;
77573;SDS011;66710;48.868;9.080;2023-10-09T13:03:13;12.35;;;3.83;;
77573;SDS011;66710;48.868;9.080;2023-10-09T13:05:45;12.10;;;3.55;;
77573;SDS011;66710;48.868;9.080;2023-10-09T13:08:20;11.23;;;3.33;;
77573;SDS011;66710;48.868;9.080;2023-10-09T13:10:55;10.35;;;3.33;;
77573;SDS011;66710;48.868;9.080;2023-10-09T13:13:25;9.77;;;3.40;;
77573;SDS011;66710;48.868;9.080;2023-10-09T13:16:01;10.75;;;3.42;;
77573;SDS011;66710;48.868;9.080;2023-10-09T13:18:27;11.63;;;3.53;;
77573;SDS011;66710;48.868;9.080;2023-10-09T13:20:52;11.73;;;4.50;;
77573;SDS011;66710;48.868;9.080;2023-10-09T13:23:18;13.48;;;4.38;;
77573;SDS011;66710;48.868;9.080;2023-10-09T13:25:43;9.13;;;3.50;;
77573;SDS011;66710;48.868;9.080;2023-10-09T13:28:09;10.85;;;4.72;;
77573;SDS011;66710;48.868;9.080;2023-10-09T13:30:37;10.80;;;4.80;;
77573;SDS011;66710;48.868;9.080;2023-10-09T13:33:04;8.38;;;4.05;;
77573;SDS011;66710;48.868;9.080;2023-10-09T13:35:30;10.00;;;4.90;;
77573;SDS011;66710;48.868;9.080;2023-10-09T13:38:02;11.10;;;5.05;;
77573;SDS011;66710;48.868;9.080;2023-10-09T13:40:34;12.35;;;4.80;;
77573;SDS011;66710;48.868;9.080;2023-10-09T13:43:02;12.45;;;5.00;;
77573;SDS011;66710;48.868;9.080;2023-10-09T13:45:28;12.15;;;4.70;;
77573;SDS011;66710;48.868;9.080;2023-10-09T13:47:54;10.07;;;4.88;;
77573;SDS011;66710;48.868;9.080;2023-10-09T13:50:24;11.88;;;4.15;;
77573;SDS011;66710;48.868;9.080;2023-10-09T13:52:57;10.98;;;4.30;;
77573;SDS011;66710;48.868;9.080;2023-10-09T13:55:22;12.38;;;4.90;;
77573;SDS011;66710;48.868;9.080;2023-10-09T13:57:47;16.40;;;5.00;;
77573;SDS011;66710;48.868;9.080;2023-10-09T14:00:13;11.82;;;5.05;;
77573;SDS011;66710;48.868;9.080;2023-10-09T14:02:42;9.77;;;4.00;;
77573;SDS011;66710;48.868;9.080;2023-10-09T14:05:08;12.60;;;5.00;;
77573;SDS011;66710;48.868;9.080;2023-10-09T14:07:33;13.07;;;5.10;;
77573;SDS011;66710;48.868;9.080;2023-10-09T14:09:59;10.27;;;4.40;;
77573;SDS011;66710;48.868;9.080;2023-10-09T14:15:08;13.05;;;5.40;;
77573;SDS011;66710;48.868;9.080;2023-10-09T14:17:36;12.02;;;5.05;;
77573;SDS011;66710;48.868;9.080;2023-10-09T14:20:01;10.98;;;4.60;;
77573;SDS011;66710;48.868;9.080;2023-10-09T14:22:46;11.70;;;4.57;;
77573;SDS011;66710;48.868;9.080;2023-10-09T14:25:17;12.77;;;4.88;;
77573;SDS011;66710;48.868;9.080;2023-10-09T14:27:45;11.45;;;5.13;;
77573;SDS011;66710;48.868;9.080;2023-10-09T14:30:13;9.73;;;4.65;;
77573;SDS011;66710;48.868;9.080;2023-10-09T14:32:48;8.93;;;4.65;;
77573;SDS011;66710;48.868;9.080;2023-10-09T14:35:20;11.60;;;4.68;;
77573;SDS011;66710;48.868;9.080;2023-10-09T14:37:46;11.13;;;4.75;;
77573;SDS011;66710;48.868;9.080;2023-10-09T14:40:12;12.00;;;4.70;;
77573;SDS011;66710;48.868;9.080;2023-10-09T14:42:45;9.95;;;4.47;;
77573;SDS011;66710;48.868;9.080;2023-10-09T14:45:11;12.02;;;4.50;;
77573;SDS011;66710;48.868;9.080;2023-10-09T14:47:44;9.57;;;4.43;;
77573;SDS011;66710;48.868;9.080;2023-10-09T14:50:11;10.48;;;4.95;;
77573;SDS011;66710;48.868;9.080;2023-10-09T14:52:38;13.00;;;5.40;;
77573;SDS011;66710;48.868;9.080;2023-10-09T14:55:05;12.40;;;5.00;;
77573;SDS011;66710;48.868;9.080;2023-10-09T14:57:31;13.75;;;4.53;;
77573;SDS011;66710;48.868;9.080;2023-10-09T14:59:59;11.10;;;4.80;;
77573;SDS011;66710;48.868;9.080;2023-10-09T15:02:26;15.43;;;5.05;;
77573;SDS011;66710;48.868;9.080;2023-10-09T15:04:51;16.58;;;5.38;;
77573;SDS011;66710;48.868;9.080;2023-10-09T15:07:18;12.13;;;4.55;;
77573;SDS011;66710;48.868;9.080;2023-10-09T15:09:46;16.67;;;4.72;;
77573;SDS011;66710;48.868;9.080;2023-10-09T15:12:11;13.45;;;4.82;;
77573;SDS011;66710;48.868;9.080;2023-10-09T15:14:36;11.43;;;4.57;;
77573;SDS011;66710;48.868;9.080;2023-10-09T15:17:04;14.05;;;4.45;;
77573;SDS011;66710;48.868;9.080;2023-10-09T15:19:31;15.98;;;4.90;;
77573;SDS011;66710;48.868;9.080;2023-10-09T15:21:57;11.55;;;4.55;;
77573;SDS011;66710;48.868;9.080;2023-10-09T15:24:23;14.10;;;4.80;;
77573;SDS011;66710;48.868;9.080;2023-10-09T15:26:50;12.93;;;4.40;;
77573;SDS011;66710;48.868;9.080;2023-10-09T15:29:22;15.93;;;4.97;;
77573;SDS011;66710;48.868;9.080;2023-10-09T15:31:54;16.58;;;4.70;;